• Join FlightAware (Why Join?)
  • Login
  • US Flag 
03:36AM EDT


 

Airport Tracker/Info


-or-


 

Live Flight TrackerFlight Track Log ✈ SKW6345 ✈ 17-Jun-2013 ✈ KLAX - KSAN

Flight Track Log - Related Links

Times and Time Zones

All times are in EDT time to prevent confusion due to time zone crossing. See the SKW6345 flight status page for this flight to view local times or setup timezone preferences in your user account.

Time Position Orientation Groundspeed Altitude Reporting Facility
EDT Latitude Longitude Course Direction KTS MPH feet Rate Location/Type
09:10PM 33.9333 -118.4333 220° Southwest 143 165 2,000  Level Southern California TRACON
09:11PM 33.9000 -118.4667 220° Southwest 189 217 3,500 1,200 Climbing Southern California TRACON
09:12PM 33.8333 -118.4833 192° South 209 241 4,400 900 Climbing Southern California TRACON
09:13PM 33.8203 -118.4794 166° South 206 237 4,700 900 Climbing Los Angeles Center
09:14PM 33.7611 -118.4703 173° South 215 247 5,700 900 Climbing Los Angeles Center
09:15PM 33.7111 -118.4339 149° Southeast 217 250 6,600 1,020 Climbing Los Angeles Center
09:16PM 33.6592 -118.3756 137° Southeast 230 265 7,900 660 Climbing Los Angeles Center
09:17PM 33.6461 -118.3008 102° East 236 272 8,000 300 Climbing Los Angeles Center
09:18PM 33.6044 -118.2372 128° Southeast 240 276 8,600 480 Climbing Los Angeles Center
09:19PM 33.5633 -118.1806 131° Southeast 232 267 9,000 180 Climbing Los Angeles Center
09:20PM 33.5292 -118.1211 125° Southeast 225 259 9,000  Level Los Angeles Center
09:21PM 33.4919 -118.0494 122° Southeast 216 249 9,000  Level Los Angeles Center
09:22PM 33.4606 -117.9911 123° Southeast 212 244 9,000  Level Los Angeles Center
09:23PM 33.4278 -117.9336 124° Southeast 210 242 9,000  Level Los Angeles Center
09:24PM 33.3956 -117.8781 125° Southeast 208 239 9,000  Level Los Angeles Center
09:24PM 33.3833 -117.8500 118° Southeast 211 243 9,000  Level Southern California TRACON
09:25PM 33.3614 -117.8208 132° Southeast 209 241 9,000  Level Los Angeles Center
09:26PM 33.3269 -117.7619 125° Southeast 212 244 9,000  Level Los Angeles Center
09:27PM 33.2933 -117.7008 123° Southeast 216 249 9,000  Level Los Angeles Center
09:28PM 33.2494 -117.6278 126° Southeast 222 255 9,000  Level Los Angeles Center
09:28PM 33.2333 -117.6167 150° Southeast 223 257 9,000 -180 Level Southern California TRACON
09:29PM 33.1833 -117.5667 140° Southeast 227 261 8,800 -480 Descending Southern California TRACON
09:31PM 33.1279 -117.5199 140° Southeast  Level Estimated
09:31PM 33.0667 -117.4833 132° Southeast 235 270 7,700  Level Southern California TRACON
09:32PM 33.0381 -117.4525 138° Southeast 233 268 7,200 -420 Descending Los Angeles Center
09:33PM 32.9939 -117.4042 137° Southeast 225 259 7,000 -120 Descending Los Angeles Center
09:34PM 32.9561 -117.3486 129° Southeast 220 253 7,000  Level Los Angeles Center
09:35PM 32.9136 -117.2842 128° Southeast 212 244 7,000  Level Los Angeles Center
09:36PM 32.8747 -117.2347 133° Southeast 206 237 7,000  Level Los Angeles Center
09:37PM 32.8394 -117.1844 130° Southeast 202 232 7,000 -540 Level Los Angeles Center
09:38PM 32.7732 -117.2365 132° Southeast  Level FlightAware Approximate
09:38PM 32.8000 -117.1167 125° Southeast 227 261 5,900  Level Southern California TRACON
09:39PM 32.7500 -117.0667 140° Southeast 213 245 4,800 -1,200 Descending Southern California TRACON
09:40PM 32.7167 -117.0333 140° Southeast 195 224 3,500 -1,380 Descending Southern California TRACON
09:41PM 32.7000 -117.0833 248° West 157 181 2,100 -1,140 Descending Southern California TRACON
09:42PM 32.7167 -117.1333 292° West 142 163 1,300 -900 Descending Southern California TRACON
09:43PM 32.7333 -117.1833 292° West 126 145 300 -900 Descending Southern California TRACON
09:44PM 32.7286 -117.1767 130° Southeast 136 157 200 -120 Descending Los Angeles Center
09:45PM 32.6494 -117.0872 136° Southeast 191 220 200  Level Los Angeles Center